Colonia Wanda, Argentina
Current Conditions -  °F | °C
As of 2:00 AM on Sunday 26 Oct 2014 (Local Time) from SARI Reporting Station
Clear Clear  
Wind Chill: 73°   Ceiling: Unl
Heat Index: 73°   Visibility: 6mi
Dew Point: 72°   Wind: 6mph
Humidity: 94%   Direction: 50°NE
Pressure: 29.88"   Gusts: NA
Location:  25.97°S, 54.47°W
Report Text: SARI 260500Z 05005KT CAVOK 23/22 Q1012
Loading
Personal Weather Stations






























Interactive Weather Map
Tropical Storm Tracking
New forecast layout! Learn more

10-Day Weather Forecast

Advertisements
Track Severe Weather on mobile